Time;durP1;ratioP1;P1;durP2;ratioP2;P2;SDS_P1;SDS_P2;PMS_P1;PMS_P2;Temp;Humidity;BMP_temperature;BMP_pressure;BME280_temperature;BME280_humidity;BME280_pressure;Samples;Min_cycle;Max_cycle;Signal;HPM_P1;HPM_P2
2022/08/09 00:02:36;;;;;;;5.80;4.03;;;;;;;16.80;95.58;99231.84;4469544;32;20188;-75
2022/08/09 00:05:19;;;;;;;6.65;4.28;;;;;;;16.77;96.19;99226.91;4471574;32;20607;-75
2022/08/09 00:08:09;;;;;;;5.53;4.45;;;;;;;16.71;96.42;99224.91;4485483;31;20096;-75
2022/08/09 00:10:39;;;;;;;7.00;4.28;;;;;;;16.68;96.07;99227.91;4485407;31;20084;-75
2022/08/09 00:13:07;;;;;;;6.75;4.40;;;;;;;16.72;95.69;99228.41;4485371;31;20092;-75
2022/08/09 00:15:45;;;;;;;11.18;4.62;;;;;;;16.69;96.62;99229.56;4485307;32;20104;-75
2022/08/09 00:18:32;;;;;;;6.30;4.55;;;;;;;16.74;96.88;99227.22;4485162;31;20114;-74
2022/08/09 00:21:06;;;;;;;7.43;5.40;;;;;;;16.71;97.69;99224.91;4485266;31;20089;-75
2022/08/09 00:23:35;;;;;;;7.15;4.65;;;;;;;16.72;97.07;99223.94;4485320;31;20441;-75
2022/08/09 00:26:25;;;;;;;6.50;4.60;;;;;;;16.73;97.06;99225.59;4485327;32;20092;-75
2022/08/09 00:29:00;;;;;;;5.68;4.50;;;;;;;16.76;96.82;99227.06;4485462;31;20153;-75
2022/08/09 00:31:28;;;;;;;6.60;4.78;;;;;;;16.78;97.12;99223.28;4485399;32;20123;-75
2022/08/09 00:34:15;;;;;;;6.82;4.62;;;;;;;16.80;96.73;99229.22;4485085;32;20431;-75
2022/08/09 00:36:47;;;;;;;6.40;4.35;;;;;;;16.83;97.56;99233.34;4485193;31;20123;-74
2022/08/09 00:39:16;;;;;;;6.12;4.22;;;;;;;16.81;97.69;99236.16;4484147;31;20084;-75
2022/08/09 00:42:03;;;;;;;9.75;4.60;;;;;;;16.81;97.27;99228.22;4485188;32;20107;-75
2022/08/09 00:44:50;;;;;;;8.63;4.82;;;;;;;16.80;97.77;99226.56;4485290;31;20145;-75
2022/08/09 00:47:21;;;;;;;7.40;4.00;;;;;;;16.78;97.93;99228.56;4484967;31;20112;-75
2022/08/09 00:49:52;;;;;;;8.02;4.97;;;;;;;16.73;98.46;99222.97;4485135;31;20077;-74
2022/08/09 00:52:25;;;;;;;7.82;4.72;;;;;;;16.72;98.16;99218.66;4485306;31;20127;-75
2022/08/09 00:54:59;;;;;;;;;;;;;;;16.77;97.12;99211.03;4485440;32;20144;-74
2022/08/09 00:57:29;;;;;;;7.62;4.43;;;;;;;16.78;97.38;99209.22;4485150;31;20486;-74
2022/08/09 01:00:07;;;;;;;6.87;4.22;;;;;;;16.79;97.21;99206.41;4485054;31;20107;-74
2022/08/09 01:02:53;;;;;;;5.87;4.35;;;;;;;16.77;97.70;99208.37;4484766;31;20101;-74
2022/08/09 01:05:40;;;;;;;7.68;4.47;;;;;;;16.73;97.91;99207.09;4485100;31;20120;-74
2022/08/09 01:08:48;;;;;;;6.03;4.75;;;;;;;16.70;97.62;99215.34;4483756;32;20100;-75
2022/08/09 01:11:39;;;;;;;7.40;5.32;;;;;;;16.60;97.82;99220.78;4484836;31;20178;-74
2022/08/09 01:14:25;;;;;;;8.15;5.62;;;;;;;16.62;97.92;99212.69;4484781;31;20410;-74
2022/08/09 01:16:56;;;;;;;7.10;6.10;;;;;;;16.64;98.24;99210.72;4484892;31;20084;-74
2022/08/09 01:19:35;;;;;;;7.80;5.65;;;;;;;16.59;98.80;99213.84;4484855;32;20108;-74
2022/08/09 01:22:32;;;;;;;9.13;5.97;;;;;;;16.54;99.20;99208.22;4484801;31;20092;-74
2022/08/09 01:25:25;;;;;;;7.65;5.85;;;;;;;16.54;99.14;99207.41;4483693;32;20141;-74
2022/08/09 01:27:54;;;;;;;8.35;5.78;;;;;;;16.64;98.88;99202.78;4484411;31;20615;-74
2022/08/09 01:30:25;;;;;;;7.87;5.60;;;;;;;16.67;98.77;99199.81;4484707;32;20112;-74
2022/08/09 01:33:05;;;;;;;9.43;5.43;;;;;;;16.68;98.22;99201.44;4484375;31;20159;-74
2022/08/09 01:36:10;;;;;;;8.70;5.55;;;;;;;16.73;98.05;99196.50;4483404;32;20115;-74
2022/08/09 01:38:46;;;;;;;8.15;5.57;;;;;;;16.71;98.42;99193.16;4407334;32;20151;-74
2022/08/09 01:41:16;;;;;;;7.70;5.53;;;;;;;16.78;97.98;99196.81;4407457;32;20113;-74
2022/08/09 01:43:48;;;;;;;10.50;5.70;;;;;;;16.77;98.09;99197.78;4420033;32;20121;-74
2022/08/09 01:46:24;;;;;;;7.35;5.25;;;;;;;16.74;97.96;99194.66;4419855;32;20125;-74
2022/08/09 01:48:57;;;;;;;9.10;5.62;;;;;;;16.75;97.99;99197.16;4407423;32;20160;-74
2022/08/09 01:51:28;;;;;;;8.18;5.62;;;;;;;16.76;97.91;99197.97;4408613;32;20468;-74
2022/08/09 01:54:00;;;;;;;6.85;5.30;;;;;;;16.78;97.94;99196.81;4421810;32;20113;-74
2022/08/09 01:56:29;;;;;;;8.93;5.32;;;;;;;16.80;98.23;99194.81;4421818;32;20160;-74
2022/08/09 01:58:58;;;;;;;6.43;4.97;;;;;;;16.82;98.06;99192.84;4421783;32;20102;-74
2022/08/09 02:01:26;;;;;;;11.85;6.03;;;;;;;16.83;97.51;99194.47;4421627;32;20790;-74
2022/08/09 02:04:14;;;;;;;7.03;5.20;;;;;;;16.80;97.90;99184.22;4410931;32;20442;-74
2022/08/09 02:09:31;;;;;;;9.18;6.10;;;;;;;16.82;97.71;99184.06;4406341;32;20558;-75
2022/08/09 02:12:11;;;;;;;10.82;6.00;;;;;;;16.74;98.39;99179.59;4406344;32;20106;-74
2022/08/09 02:14:46;;;;;;;8.45;5.97;;;;;;;16.76;98.41;99177.66;4450997;32;20462;-74
2022/08/09 02:17:21;;;;;;;6.72;5.35;;;;;;;16.76;98.46;99172.34;4469145;32;20586;-74
2022/08/09 02:20:10;;;;;;;8.82;5.35;;;;;;;16.66;98.78;99172.50;4469125;32;20366;-74
2022/08/09 02:22:49;;;;;;;9.50;5.05;;;;;;;16.73;98.58;99167.41;4470459;32;20089;-75
2022/08/09 02:25:20;;;;;;;5.87;4.47;;;;;;;16.73;98.74;99162.09;4470445;32;20077;-75
2022/08/09 02:27:53;;;;;;;7.15;4.97;;;;;;;16.76;98.56;99159.12;4469156;32;20107;-75
2022/08/09 02:30:35;;;;;;;8.27;5.30;;;;;;;16.73;99.05;99159.47;4469062;32;20099;-74
2022/08/09 02:33:03;;;;;;;6.60;5.10;;;;;;;16.66;99.01;99161.94;4468904;32;20096;-75
2022/08/09 02:35:41;;;;;;;7.45;5.55;;;;;;;16.64;99.12;99161.28;4469091;32;20088;-75
2022/08/09 02:38:31;;;;;;;8.05;5.22;;;;;;;16.58;99.88;99161.94;4469242;32;20096;-75
2022/08/09 02:41:08;;;;;;;7.28;5.10;;;;;;;16.50;100.00;99168.06;4469123;32;20081;-75
2022/08/09 02:43:36;;;;;;;8.60;5.85;;;;;;;16.44;100.00;99168.72;4469358;32;20462;-75
2022/08/09 02:46:24;;;;;;;11.18;6.18;;;;;;;16.30;100.00;99169.38;4470373;32;20525;-75
2022/08/09 02:48:58;;;;;;;8.95;6.82;;;;;;;16.23;100.00;99174.50;4469133;32;20509;-75
2022/08/09 02:51:26;;;;;;;10.68;7.57;;;;;;;16.21;100.00;99165.88;4469180;32;20084;-75
2022/08/09 02:54:05;;;;;;;9.80;7.93;;;;;;;16.20;100.00;99168.69;4469200;32;20120;-75
2022/08/09 02:56:35;;;;;;;10.00;7.85;;;;;;;16.17;100.00;99171.66;4469194;32;20113;-75
2022/08/09 02:59:03;;;;;;;9.85;7.45;;;;;;;16.08;100.00;99171.66;4468875;32;20544;-75
2022/08/09 03:01:33;;;;;;;11.95;8.30;;;;;;;16.14;100.00;99180.78;4469926;32;20104;-75
2022/08/09 03:04:21;;;;;;;15.93;8.98;;;;;;;16.08;100.00;99166.38;4469773;32;20108;-75
2022/08/09 03:06:54;;;;;;;;;;;;;;;16.06;100.00;99172.81;4482113;32;20137;-75
2022/08/09 03:09:26;;;;;;;13.15;9.40;;;;;;;15.99;100.00;99177.94;4484759;32;19971;-75
2022/08/09 03:12:00;;;;;;;10.82;9.00;;;;;;;16.04;100.00;99185.37;4484782;32;20080;-75
2022/08/09 03:14:39;;;;;;;13.70;9.57;;;;;;;16.01;100.00;99178.56;4484564;32;20518;-75
2022/08/09 03:17:07;;;;;;;14.25;8.90;;;;;;;15.99;100.00;99177.94;4484557;32;20096;-75
2022/08/09 03:19:43;;;;;;;13.57;8.70;;;;;;;15.96;100.00;99180.91;4484330;32;20114;-75
2022/08/09 03:22:27;;;;;;;11.77;8.65;;;;;;;15.95;100.00;99180.03;4485840;31;20076;-75
2022/08/09 03:24:58;;;;;;;14.40;9.20;;;;;;;16.02;100.00;99182.88;4485657;32;20112;-75
2022/08/09 03:27:50;;;;;;;19.65;9.68;;;;;;;16.08;100.00;99192.81;4485667;31;20115;-75
2022/08/09 03:30:18;;;;;;;13.68;9.00;;;;;;;16.05;100.00;99179.06;4484293;32;20454;-75
2022/08/09 03:33:09;;;;;;;11.57;8.00;;;;;;;16.04;100.00;99183.53;4484576;32;20496;-75
2022/08/09 03:35:50;;;;;;;12.40;8.48;;;;;;;16.11;100.00;99189.84;4485892;31;20154;-75
2022/08/09 03:38:39;;;;;;;14.68;8.55;;;;;;;16.15;100.00;99190.31;4468893;32;20445;-75
2022/08/09 03:41:14;;;;;;;12.82;8.63;;;;;;;16.17;100.00;99179.59;4470180;32;20081;-75
2022/08/09 03:43:45;;;;;;;10.07;8.00;;;;;;;16.21;100.00;99183.56;4470158;32;20134;-75
2022/08/09 03:46:33;;;;;;;12.77;7.65;;;;;;;16.25;100.00;99182.25;4469844;32;20165;-75
2022/08/09 03:49:02;;;;;;;11.35;7.40;;;;;;;16.24;100.00;99177.97;4469734;32;20169;-75
2022/08/09 03:51:39;;;;;;;9.30;7.43;;;;;;;16.23;100.00;99184.22;4469722;32;20492;-75
2022/08/09 03:54:25;;;;;;;11.95;7.53;;;;;;;16.26;100.00;99171.53;4468747;32;20475;-75
2022/08/09 03:57:03;;;;;;;10.35;7.15;;;;;;;16.30;100.00;99177.31;4468615;32;20160;-75
2022/08/09 03:59:51;;;;;;;9.82;6.72;;;;;;;16.33;100.00;99176.97;4469693;32;20163;-75
2022/08/09 04:02:26;;;;;;;10.18;6.87;;;;;;;16.36;100.00;99178.47;4468286;32;20139;-75
2022/08/09 04:04:57;;;;;;;12.20;7.00;;;;;;;16.42;100.00;99180.44;4468344;32;20158;-75
2022/08/09 04:07:26;;;;;;;10.27;6.30;;;;;;;16.46;100.00;99182.59;4469637;32;20144;-75
2022/08/09 04:10:14;;;;;;;10.75;7.07;;;;;;;16.52;100.00;99180.28;4469771;32;20375;-75
2022/08/09 04:12:51;;;;;;;11.25;6.30;;;;;;;16.49;100.00;99187.56;4469829;32;20152;-75
2022/08/09 04:15:22;;;;;;;8.38;5.60;;;;;;;16.56;100.00;99186.91;4469609;32;20458;-75
2022/08/09 04:18:09;;;;;;;9.68;6.07;;;;;;;16.60;100.00;99189.03;4469671;32;20112;-75
2022/08/09 04:20:48;;;;;;;9.43;6.22;;;;;;;16.58;100.00;99195.47;4469436;32;20500;-74
2022/08/09 04:23:15;;;;;;;8.57;6.47;;;;;;;16.61;100.00;99189.91;4469720;32;20085;-75
2022/08/09 04:25:44;;;;;;;9.93;6.43;;;;;;;16.66;100.00;99190.22;4469804;32;20104;-74
2022/08/09 04:28:22;;;;;;;8.85;6.05;;;;;;;16.76;100.00;99193.50;4469459;32;20073;-74
2022/08/09 04:31:05;;;;;;;12.30;6.32;;;;;;;16.86;99.51;99198.63;4469589;32;20089;-74
2022/08/09 04:33:38;;;;;;;9.15;6.22;;;;;;;16.98;98.17;99197.31;4468635;32;20435;-74
2022/08/09 04:36:30;;;;;;;12.77;6.85;;;;;;;17.07;98.17;99206.06;4469674;32;20180;-74
2022/08/09 04:39:00;;;;;;;8.40;6.35;;;;;;;17.19;97.33;99209.19;4484881;31;20484;-74
2022/08/09 04:41:28;;;;;;;10.35;7.20;;;;;;;17.42;96.49;99204.00;4485004;31;20122;-74
2022/08/09 04:44:01;;;;;;;10.30;6.97;;;;;;;20.98;79.62;99205.56;4485050;31;20088;-74
2022/08/09 04:46:37;;;;;;;11.75;6.40;;;;;;;21.53;75.03;99214.56;4484279;31;20100;-74
2022/08/09 04:49:25;;;;;;;9.65;6.68;;;;;;;21.82;73.62;99212.62;4484007;32;20123;-74
2022/08/09 04:52:13;;;;;;;10.48;7.40;;;;;;;19.89;79.92;99211.88;4484940;31;20125;-74
2022/08/09 04:54:52;;;;;;;11.57;7.97;;;;;;;19.36;83.79;99214.63;4484851;31;20088;-74
2022/08/09 04:57:20;;;;;;;13.15;8.00;;;;;;;19.85;81.52;99208.78;4484764;31;20415;-74
2022/08/09 04:59:52;;;;;;;15.73;8.10;;;;;;;19.71;82.13;99214.88;4482848;32;20125;-74
2022/08/09 05:02:23;;;;;;;13.02;7.57;;;;;;;19.69;81.96;99209.75;4480405;31;20104;-74
2022/08/09 05:04:54;;;;;;;12.75;7.93;;;;;;;19.50;83.43;99209.31;4477773;32;20110;-74
2022/08/09 05:07:23;;;;;;;8.65;6.62;;;;;;;19.68;83.05;99216.06;4477411;32;20088;-74
2022/08/09 05:09:53;;;;;;;12.45;8.00;;;;;;;19.62;83.21;99207.03;4480968;32;20092;-74
2022/08/09 05:12:22;;;;;;;9.50;8.00;;;;;;;19.54;83.24;99217.75;4480883;31;20096;-74
2022/08/09 05:14:49;;;;;;;11.18;7.82;;;;;;;19.54;83.28;99220.41;4481322;32;20224;-74
2022/08/09 05:17:17;;;;;;;12.00;7.37;;;;;;;19.42;83.50;99219.22;4480764;31;20469;-74
2022/08/09 05:20:05;;;;;;;13.07;6.97;;;;;;;19.48;83.35;99223.78;4478995;32;20104;-74
2022/08/09 05:22:32;;;;;;;10.00;7.18;;;;;;;19.74;82.25;99219.84;4476267;31;20462;-74
2022/08/09 05:25:20;;;;;;;8.35;6.07;;;;;;;19.96;82.10;99208.28;4473169;32;20118;-74
2022/08/09 05:27:49;;;;;;;7.57;5.62;;;;;;;20.21;80.21;99213.25;4476187;32;20557;-74
2022/08/09 05:30:16;;;;;;;10.23;5.82;;;;;;;20.49;78.98;99215.97;4481754;31;20120;-74
2022/08/09 05:32:45;;;;;;;10.25;6.40;;;;;;;20.60;78.72;99216.50;4484200;32;20110;-74
2022/08/09 05:35:19;;;;;;;11.57;6.20;;;;;;;20.70;78.72;99220.50;4478274;31;20120;-75
2022/08/09 05:37:49;;;;;;;10.10;6.57;;;;;;;20.73;78.55;99213.97;4480224;32;20164;-75
2022/08/09 05:40:17;;;;;;;5.07;4.57;;;;;;;20.71;78.08;99227.50;4477004;32;20438;-75
2022/08/09 05:42:44;;;;;;;7.03;5.00;;;;;;;21.16;76.07;99223.72;4477767;32;20149;-75
2022/08/09 05:45:12;;;;;;;6.57;5.43;;;;;;;21.45;74.19;99222.66;4481292;32;20199;-75
2022/08/09 05:47:41;;;;;;;11.25;5.78;;;;;;;21.44;74.80;99219.19;4483180;31;20092;-75
2022/08/09 05:50:22;;;;;;;7.62;5.50;;;;;;;21.29;75.16;99215.81;4475609;31;20425;-75
2022/08/09 05:53:10;;;;;;;8.18;5.30;;;;;;;21.45;74.93;99226.16;4477199;31;20378;-75
2022/08/09 05:55:57;;;;;;;5.70;4.20;;;;;;;21.56;74.21;99222.16;4482231;31;20417;-75
2022/08/09 05:58:24;;;;;;;5.85;4.25;;;;;;;21.97;71.84;99220.47;4478571;31;20076;-75
2022/08/09 06:00:52;;;;;;;7.37;4.12;;;;;;;22.06;70.43;99226.44;4473205;31;20105;-75
2022/08/09 06:03:20;;;;;;;8.27;4.55;;;;;;;22.14;70.16;99224.41;4477741;31;20157;-75
2022/08/09 06:05:49;;;;;;;8.18;4.40;;;;;;;21.96;70.20;99226.81;4483392;31;20155;-75
2022/08/09 06:08:32;;;;;;;6.47;4.40;;;;;;;22.04;70.13;99226.63;4483510;31;20171;-75
2022/08/09 06:11:00;;;;;;;10.10;4.50;;;;;;;21.90;69.09;99219.62;4473469;31;20454;-75
2022/08/09 06:13:27;;;;;;;8.45;4.40;;;;;;;22.12;69.09;99226.47;4475650;32;20104;-75
2022/08/09 06:16:01;;;;;;;7.72;4.53;;;;;;;22.23;68.94;99219.72;4468771;32;20156;-76
2022/08/09 06:18:32;;;;;;;12.20;4.75;;;;;;;22.37;68.09;99230.47;4476307;32;20196;-76
2022/08/09 06:21:01;;;;;;;8.50;4.78;;;;;;;22.11;67.94;99227.50;4472139;32;20108;-76
2022/08/09 06:23:31;;;;;;;10.05;4.70;;;;;;;22.50;67.96;99225.16;4476509;32;20127;-75
2022/08/09 06:26:19;;;;;;;9.05;5.07;;;;;;;22.54;67.10;99225.56;4478270;32;20631;-75
2022/08/09 06:28:50;;;;;;;9.63;4.28;;;;;;;22.63;66.98;99225.13;4471801;32;20115;-75
2022/08/09 06:31:34;;;;;;;6.37;4.78;;;;;;;22.73;66.72;99223.94;4476784;32;20100;-75
2022/08/09 06:34:22;;;;;;;13.27;5.05;;;;;;;22.84;66.43;99229.47;4480829;32;20122;-76
2022/08/09 06:36:52;;;;;;;6.25;4.60;;;;;;;23.07;66.37;99236.22;4475088;32;20088;-73
2022/08/09 06:39:28;;;;;;;8.57;4.75;;;;;;;23.37;65.11;99236.63;4477045;32;20084;-73
2022/08/09 06:42:19;;;;;;;6.30;4.43;;;;;;;23.29;63.42;99244.06;4478662;32;20407;-73
2022/08/09 06:44:55;;;;;;;7.53;4.70;;;;;;;23.29;63.17;99239.53;4478315;31;20100;-73
2022/08/09 06:47:23;;;;;;;8.30;4.70;;;;;;;23.16;64.80;99237.69;4482671;32;20084;-72
2022/08/09 06:49:56;;;;;;;9.98;4.60;;;;;;;23.25;63.42;99240.16;4482971;32;20093;-72
2022/08/09 06:52:46;;;;;;;7.97;5.07;;;;;;;23.44;63.35;99241.13;4470075;32;20085;-72
2022/08/09 06:55:17;;;;;;;6.12;4.68;;;;;;;23.47;63.58;99246.91;4474228;32;20096;-73
2022/08/09 06:57:49;;;;;;;7.45;4.60;;;;;;;23.79;65.41;99244.34;4484290;31;20399;-73
2022/08/09 07:00:31;;;;;;;6.53;4.40;;;;;;;24.12;62.51;99237.22;4470134;32;20084;-72
2022/08/09 07:03:18;;;;;;;6.32;4.62;;;;;;;24.22;61.75;99237.59;4480074;32;20561;-72
2022/08/09 07:05:55;;;;;;;9.52;4.90;;;;;;;24.04;61.30;99251.66;4483708;31;20109;-72
2022/08/09 07:08:34;;;;;;;5.57;4.05;;;;;;;24.14;61.75;99249.38;4484564;31;20167;-73
2022/08/09 07:11:06;;;;;;;7.18;3.62;;;;;;;24.04;61.25;99251.66;4473486;31;20486;-73
2022/08/09 07:13:34;;;;;;;6.32;4.10;;;;;;;24.21;62.37;99244.81;4481295;31;20105;-72
2022/08/09 07:16:22;;;;;;;6.75;4.45;;;;;;;24.27;60.17;99243.94;4476126;32;20128;-72
2022/08/09 07:19:10;;;;;;;7.78;3.80;;;;;;;24.36;60.02;99249.88;4479494;32;20142;-72
2022/08/09 07:21:45;;;;;;;5.95;3.83;;;;;;;24.52;58.56;99247.72;4473960;31;20093;-72
2022/08/09 07:24:25;;;;;;;6.72;4.65;;;;;;;24.47;59.84;99248.34;4477592;31;20468;-72
2022/08/09 07:27:08;;;;;;;5.95;5.15;;;;;;;24.31;61.12;99246.19;4476177;32;20164;-72
2022/08/09 07:29:54;;;;;;;10.55;4.97;;;;;;;24.17;61.03;99251.63;4480083;32;20100;-72
2022/08/09 07:32:23;;;;;;;9.27;5.15;;;;;;;24.64;61.84;99239.84;4480794;31;20114;-72
2022/08/09 07:35:02;;;;;;;12.88;5.55;;;;;;;24.79;62.39;99238.47;4480796;31;20466;-71
2022/08/09 07:37:39;;;;;;;10.02;5.35;;;;;;;24.92;61.10;99242.91;4480733;32;20131;-72
2022/08/09 07:40:15;;;;;;;9.63;5.47;;;;;;;25.29;59.40;99244.84;4477114;32;20096;-71
2022/08/09 07:42:54;;;;;;;8.70;4.80;;;;;;;25.38;61.55;99248.09;4479984;32;20100;-72
2022/08/09 07:45:26;;;;;;;7.87;4.57;;;;;;;24.95;59.82;99242.47;4482547;31;20122;-71
2022/08/09 07:48:05;;;;;;;9.73;4.70;;;;;;;24.82;60.66;99241.75;4474702;32;20426;-71
2022/08/09 07:50:32;;;;;;;6.80;4.75;;;;;;;24.79;60.79;99245.69;4482460;32;20108;-71
2022/08/09 07:53:03;;;;;;;7.05;5.25;;;;;;;24.95;58.25;99247.81;4483552;31;20093;-72
2022/08/09 07:55:32;;;;;;;6.07;5.32;;;;;;;25.26;58.87;99248.78;4478093;31;21726;-72
2022/08/09 07:58:19;;;;;;;5.53;4.20;;;;;;;25.39;57.89;99247.03;4483007;31;20601;-72
2022/08/09 08:00:53;;;;;;;10.10;4.20;;;;;;;25.49;56.89;99248.13;4484624;32;20152;-72
2022/08/09 08:03:32;;;;;;;4.93;4.32;;;;;;;25.40;57.02;99248.66;4477998;31;20088;-72
2022/08/09 08:06:04;;;;;;;8.90;4.90;;;;;;;25.20;58.11;99243.47;4478764;32;20402;-72
2022/08/09 08:08:32;;;;;;;7.75;5.00;;;;;;;25.49;57.31;99247.34;4483351;31;20127;-72
2022/08/09 08:11:19;;;;;;;7.00;4.43;;;;;;;25.24;56.96;99250.03;4480358;31;20107;-71
2022/08/09 08:14:06;;;;;;;8.18;4.75;;;;;;;25.54;57.92;99252.84;4479070;31;20453;-72
2022/08/09 08:16:35;;;;;;;8.00;5.40;;;;;;;25.43;57.53;99253.59;4476771;31;20171;-72
2022/08/09 08:19:05;;;;;;;8.93;5.03;;;;;;;25.40;57.73;99248.66;4469624;32;20172;-71
2022/08/09 08:21:32;;;;;;;8.57;4.82;;;;;;;25.55;56.19;99243.75;4476699;31;20126;-72
2022/08/09 08:24:06;;;;;;;7.90;5.30;;;;;;;25.77;56.50;99249.50;4478666;31;20498;-71
2022/08/09 08:26:42;;;;;;;7.32;5.07;;;;;;;25.76;56.74;99247.03;4484760;31;20110;-72
2022/08/09 08:29:24;;;;;;;8.48;4.72;;;;;;;25.98;56.94;99250.06;4479064;32;20116;-72
2022/08/09 08:31:55;;;;;;;6.97;4.78;;;;;;;26.32;56.00;99235.16;4481603;31;20268;-72
2022/08/09 08:34:30;;;;;;;14.00;5.20;;;;;;;26.49;55.16;99237.22;4479580;32;20092;-72
2022/08/09 08:37:20;;;;;;;9.05;5.25;;;;;;;26.18;54.47;99233.72;4479511;32;20155;-72
2022/08/09 08:40:11;;;;;;;8.57;4.72;;;;;;;25.96;54.78;99242.22;4480839;31;20104;-72
2022/08/09 08:42:59;;;;;;;5.45;4.62;;;;;;;25.99;54.67;99241.00;4475495;32;20097;-72
2022/08/09 08:45:56;;;;;;;9.52;4.47;;;;;;;26.02;54.09;99235.19;4475882;32;20474;-72
2022/08/09 08:48:56;;;;;;;5.75;4.10;;;;;;;26.12;54.43;99240.81;4476728;32;20562;-72
2022/08/09 08:51:44;;;;;;;9.40;4.57;;;;;;;26.20;54.50;99237.00;4479063;32;20140;-72
2022/08/09 08:54:47;;;;;;;5.07;4.50;;;;;;;26.14;54.12;99240.59;4480091;32;20461;-72
2022/08/09 08:57:36;;;;;;;8.35;4.60;;;;;;;26.11;54.38;99231.13;4481096;32;20404;-72
2022/08/09 09:00:26;;;;;;;7.10;5.12;;;;;;;26.12;53.87;99237.34;4474917;32;20162;-72
2022/08/09 09:03:20;;;;;;;8.45;4.70;;;;;;;26.19;54.49;99228.12;4478012;32;20183;-72
2022/08/09 09:06:04;;;;;;;7.87;4.90;;;;;;;26.68;52.82;99233.44;4476355;32;20108;-72
2022/08/09 09:08:38;;;;;;;5.43;4.15;;;;;;;26.81;52.55;99236.94;4477013;32;20161;-72
2022/08/09 09:11:09;;;;;;;5.68;4.20;;;;;;;26.72;53.37;99234.59;4479763;31;20092;-72
2022/08/09 09:13:47;;;;;;;9.43;4.68;;;;;;;26.63;52.22;99241.34;4474045;32;20100;-72
2022/08/09 09:16:29;;;;;;;5.47;4.10;;;;;;;26.74;50.25;99237.88;4468682;32;119677;-72
2022/08/09 09:19:04;;;;;;;5.25;3.75;;;;;;;26.66;52.14;99235.53;4478585;32;20183;-72
2022/08/09 09:22:15;;;;;;;5.68;4.03;;;;;;;26.87;51.29;99238.69;4476921;32;20092;-72
2022/08/09 09:24:51;;;;;;;5.57;4.25;;;;;;;26.80;50.80;99235.31;4478141;32;20119;-72
2022/08/09 09:27:26;;;;;;;5.87;4.05;;;;;;;25.96;51.93;99236.84;4477984;31;20135;-72
2022/08/09 09:30:13;;;;;;;8.85;4.00;;;;;;;26.06;51.48;99243.59;4474473;32;20107;-72
2022/08/09 09:33:09;;;;;;;7.30;4.18;;;;;;;26.24;51.74;99237.34;4475136;32;20130;-72
2022/08/09 09:35:55;;;;;;;6.07;4.10;;;;;;;26.47;50.92;99231.25;4477636;32;20117;-72
2022/08/09 09:38:39;;;;;;;7.12;4.15;;;;;;;26.78;49.38;99232.03;4477299;32;20080;-74
2022/08/09 09:41:07;;;;;;;8.73;4.43;;;;;;;27.22;49.11;99237.88;4477293;32;20118;-74
2022/08/09 09:43:36;;;;;;;10.95;4.00;;;;;;;27.23;48.12;99229.59;4480308;32;20104;-74
2022/08/09 09:46:32;;;;;;;5.47;3.17;;;;;;;27.47;48.86;99231.47;4481583;32;20180;-74
2022/08/09 09:49:20;;;;;;;5.35;3.28;;;;;;;27.39;46.32;99233.47;4480732;31;20105;-74
2022/08/09 09:52:09;;;;;;;6.15;3.50;;;;;;;27.49;47.68;99234.75;4476713;32;20130;-74
2022/08/09 09:55:05;;;;;;;5.53;3.70;;;;;;;27.29;46.37;99235.91;4483235;31;20132;-74
2022/08/09 09:58:03;;;;;;;3.30;3.00;;;;;;;27.64;47.01;99234.25;4482324;32;20115;-74
2022/08/09 10:00:53;;;;;;;3.80;2.95;;;;;;;27.90;45.90;99235.56;4476823;31;20092;-73
2022/08/09 10:03:43;;;;;;;4.03;3.50;;;;;;;27.96;44.65;99234.66;4476606;32;20152;-72
2022/08/09 10:06:40;;;;;;;4.05;3.22;;;;;;;27.48;45.65;99242.00;4482089;32;20176;-72
2022/08/09 10:09:11;;;;;;;6.72;3.50;;;;;;;27.77;44.51;99228.59;4474546;32;20100;-75
2022/08/09 10:11:57;;;;;;;5.68;3.62;;;;;;;28.03;44.00;99229.94;4480052;31;20143;-75
2022/08/09 10:14:41;;;;;;;3.45;3.15;;;;;;;28.22;44.47;99224.34;4480537;32;20107;-74
2022/08/09 10:17:17;;;;;;;3.92;3.03;;;;;;;28.48;42.14;99223.75;4478845;32;20092;-73
2022/08/09 10:20:16;;;;;;;5.05;2.80;;;;;;;28.50;42.94;99221.63;4477067;32;21716;-75
2022/08/09 10:23:09;;;;;;;;;;;;;;;28.85;41.75;99217.88;4480552;31;20473;-72
2022/08/09 10:25:40;;;;;;;5.70;3.30;;;;;;;29.10;42.68;99216.66;4479538;32;20765;-73
2022/08/09 10:28:34;;;;;;;4.78;3.20;;;;;;;29.13;43.04;99220.72;4474518;32;20811;-73
2022/08/09 10:31:02;;;;;;;6.30;3.83;;;;;;;28.62;43.53;99218.06;4479666;31;20165;-73
2022/08/09 10:33:50;;;;;;;8.63;4.25;;;;;;;29.01;42.87;99215.44;4478903;31;20777;-75
2022/08/09 10:36:39;;;;;;;9.50;3.70;;;;;;;29.63;43.73;99205.47;4480981;31;20114;-75
2022/08/09 10:39:08;;;;;;;8.85;3.70;;;;;;;29.47;41.17;99205.28;4476342;31;20097;-74
2022/08/09 10:41:45;;;;;;;4.70;3.35;;;;;;;29.42;42.42;99205.25;4481073;32;20168;-75
2022/08/09 10:44:21;;;;;;;6.45;3.42;;;;;;;30.35;41.56;99200.84;4477346;32;20096;-74
2022/08/09 10:47:06;;;;;;;8.02;3.50;;;;;;;30.83;39.51;99204.53;4479081;31;20115;-73
2022/08/09 10:50:21;;;;;;;3.78;3.28;;;;;;;30.76;38.70;99195.81;4481180;32;20104;-75
2022/08/09 10:53:05;;;;;;;4.75;4.05;;;;;;;30.86;39.95;99205.91;4451659;32;20109;-76
2022/08/09 10:55:37;;;;;;;5.97;3.85;;;;;;;31.05;39.59;99198.19;4420925;32;20244;-75
2022/08/09 10:58:33;;;;;;;7.18;3.67;;;;;;;30.96;39.64;99195.13;4436161;32;20118;-74
2022/08/09 11:01:03;;;;;;;8.32;4.25;;;;;;;30.56;40.27;99202.69;4430110;32;20211;-75
2022/08/09 11:04:09;;;;;;;4.20;3.80;;;;;;;29.69;42.33;99205.31;4435672;32;20113;-75
2022/08/09 11:06:58;;;;;;;4.78;4.18;;;;;;;29.60;43.34;99197.88;4431915;32;20102;-74
2022/08/09 11:09:36;;;;;;;9.00;3.95;;;;;;;29.29;43.09;99200.19;4431209;32;20113;-74
2022/08/09 11:12:16;;;;;;;8.50;4.05;;;;;;;28.85;43.84;99198.19;4428754;32;20151;-75
2022/08/09 11:14:50;;;;;;;7.47;4.45;;;;;;;28.54;44.88;99207.66;4433967;32;20194;-74
2022/08/09 11:17:37;;;;;;;6.43;4.00;;;;;;;28.65;44.97;99206.81;4434592;32;20143;-75
2022/08/09 11:20:09;;;;;;;4.82;3.80;;;;;;;28.91;43.87;99199.91;4399555;32;20106;-75
2022/08/09 11:22:50;;;;;;;5.00;4.12;;;;;;;29.10;43.36;99197.78;4373170;32;20137;-78
2022/08/09 11:25:26;;;;;;;5.82;3.80;;;;;;;29.54;42.65;99197.81;4373672;32;20227;-79
2022/08/09 11:28:28;;;;;;;6.00;3.53;;;;;;;29.42;42.66;99199.00;4375012;32;20095;-75
2022/08/09 11:31:02;;;;;;;5.78;3.90;;;;;;;29.78;42.20;99191.34;4405259;32;20122;-75
2022/08/09 11:33:45;;;;;;;6.40;4.10;;;;;;;29.49;42.70;99192.34;4405197;32;20122;-76
2022/08/09 11:36:16;;;;;;;6.28;3.85;;;;;;;29.10;43.11;99186.13;4415592;32;20202;-75
2022/08/09 11:39:01;;;;;;;6.07;4.15;;;;;;;29.43;43.26;99187.97;4409238;32;20665;-73
2022/08/09 11:41:29;;;;;;;5.50;4.15;;;;;;;29.47;42.33;99191.78;4420956;32;20151;-75
2022/08/09 11:44:06;;;;;;;5.30;4.22;;;;;;;29.73;42.07;99182.09;4421009;32;20172;-75
2022/08/09 11:46:53;;;;;;;7.28;4.03;;;;;;;29.90;40.97;99184.78;4408315;32;20089;-74
2022/08/09 11:49:58;;;;;;;6.40;3.90;;;;;;;29.83;41.62;99188.75;4421092;32;20093;-75
2022/08/09 11:52:57;;;;;;;4.82;4.30;;;;;;;29.89;41.12;99188.53;4420733;32;20475;-75
2022/08/09 11:55:44;;;;;;;8.20;4.15;;;;;;;30.12;41.45;99186.59;4419740;32;20097;-74
2022/08/09 11:58:29;;;;;;;6.10;4.22;;;;;;;29.52;43.25;99188.34;4483811;32;20103;-76
2022/08/09 12:01:05;;;;;;;5.75;4.30;;;;;;;29.71;42.04;99178.03;4485472;31;20136;-77
2022/08/09 12:03:43;;;;;;;6.12;4.30;;;;;;;29.85;41.16;99179.28;4485234;31;20065;-75
2022/08/09 12:06:25;;;;;;;5.80;4.30;;;;;;;30.04;40.53;99173.56;4484680;31;20126;-74
2022/08/09 12:09:04;;;;;;;5.50;4.30;;;;;;;30.37;41.57;99174.38;4485668;31;20096;-75
2022/08/09 12:11:31;;;;;;;6.22;4.50;;;;;;;30.72;39.90;99173.03;4485275;31;20144;-75
2022/08/09 12:14:18;;;;;;;6.22;3.83;;;;;;;30.97;39.55;99175.91;4485206;31;20110;-73
2022/08/09 12:17:06;;;;;;;4.72;4.00;;;;;;;31.01;39.27;99170.84;4485411;31;20084;-74
2022/08/09 12:19:53;;;;;;;6.43;3.90;;;;;;;30.91;38.54;99165.34;4484305;32;20089;-74
2022/08/09 12:22:26;;;;;;;8.90;4.00;;;;;;;30.55;39.57;99167.78;4484873;31;20452;-73
2022/08/09 12:25:17;;;;;;;9.63;4.65;;;;;;;30.49;41.38;99158.81;4484177;32;20178;-74
2022/08/09 12:28:15;;;;;;;5.95;3.90;;;;;;;30.15;41.18;99159.06;4485266;31;20141;-73
2022/08/09 12:31:02;;;;;;;6.62;3.55;;;;;;;30.09;39.90;99160.09;4485237;31;20445;-74